Time;durP1;ratioP1;P1;durP2;ratioP2;P2;SDS_P1;SDS_P2;PMS_P1;PMS_P2;Temp;Humidity;BMP_temperature;BMP_pressure;BME280_temperature;BME280_humidity;BME280_pressure;Samples;Min_cycle;Max_cycle;Signal;HPM_P1;HPM_P2
2023/04/15 00:00:06;;;;;;;4.83;3.70;;;;;;;8.98;51.77;95210.22;4989325;28;20261;-67
2023/04/15 00:02:31;;;;;;;6.33;4.50;;;;;;;9.00;51.80;95208.34;4988978;28;20418;-67
2023/04/15 00:04:57;;;;;;;8.03;4.57;;;;;;;8.95;52.62;95203.38;4989300;28;20467;-68
2023/04/15 00:07:22;;;;;;;4.83;4.13;;;;;;;8.89;52.08;95212.41;4988987;28;20252;-67
2023/04/15 00:09:48;;;;;;;6.53;4.57;;;;;;;8.87;52.55;95211.66;4988970;28;20169;-67
2023/04/15 00:12:13;;;;;;;8.07;4.50;;;;;;;9.00;52.31;95209.22;4988899;28;20289;-67
2023/04/15 00:14:39;;;;;;;8.00;4.87;;;;;;;8.88;52.73;95215.09;4989003;28;20267;-67
2023/04/15 00:17:04;;;;;;;5.77;5.17;;;;;;;8.97;52.55;95211.97;4988628;28;20173;-67
2023/04/15 00:19:31;;;;;;;9.20;4.93;;;;;;;8.90;51.89;95214.13;4988939;28;20227;-67
2023/04/15 00:21:56;;;;;;;13.67;6.13;;;;;;;8.83;52.55;95212.75;4988813;28;20197;-67
2023/04/15 00:24:23;;;;;;;8.80;6.00;;;;;;;8.86;52.29;95207.38;4988898;28;20456;-67
2023/04/15 00:26:48;;;;;;;6.73;5.10;;;;;;;8.88;51.61;95210.75;4988293;28;20173;-67
2023/04/15 00:29:14;;;;;;;10.27;5.73;;;;;;;8.92;51.33;95203.53;4988587;28;20446;-67
2023/04/15 00:31:39;;;;;;;8.10;4.20;;;;;;;8.87;52.15;95206.41;4988687;28;20224;-67
2023/04/15 00:34:05;;;;;;;7.77;4.37;;;;;;;8.78;52.17;95206.09;4988701;28;20196;-66
2023/04/15 00:36:30;;;;;;;7.57;5.37;;;;;;;8.76;51.53;95202.72;4988781;28;20208;-66
2023/04/15 00:38:56;;;;;;;8.10;4.60;;;;;;;8.66;52.56;95200.63;4988601;28;20239;-67
2023/04/15 00:41:22;;;;;;;7.57;4.60;;;;;;;8.64;52.22;95199.84;4988822;28;20215;-67
2023/04/15 00:43:48;;;;;;;5.33;4.20;;;;;;;8.80;52.38;95193.78;4988657;28;20705;-67
2023/04/15 00:46:14;;;;;;;7.67;4.43;;;;;;;8.63;52.48;95202.56;4988394;28;20173;-67
2023/04/15 00:48:41;;;;;;;8.73;4.63;;;;;;;8.61;52.13;95192.19;4989112;28;20173;-67
2023/04/15 00:51:07;;;;;;;6.70;4.57;;;;;;;8.74;52.57;95201.97;4988619;28;20427;-67
2023/04/15 00:53:32;;;;;;;5.90;4.50;;;;;;;8.81;51.97;95192.84;4988397;28;20404;-66
2023/04/15 00:55:58;;;;;;;6.20;4.80;;;;;;;8.63;52.81;95195.56;4988209;28;20965;-67
2023/04/15 00:58:25;;;;;;;13.23;5.27;;;;;;;8.67;52.08;95197.09;4988547;28;20250;-67
2023/04/15 01:00:53;;;;;;;6.33;4.70;;;;;;;8.60;52.43;95193.13;4988405;28;20196;-67
2023/04/15 01:03:19;;;;;;;12.07;5.43;;;;;;;8.58;52.26;95188.91;4988233;28;20455;-68
2023/04/15 01:05:45;;;;;;;7.13;4.40;;;;;;;8.50;52.19;95191.09;4987948;28;20417;-67
2023/04/15 01:08:11;;;;;;;6.53;5.43;;;;;;;8.51;52.94;95191.03;4987923;28;20476;-66
2023/04/15 01:10:36;;;;;;;9.43;5.87;;;;;;;8.55;52.69;95192.53;4988303;28;20200;-67
2023/04/15 01:13:02;;;;;;;10.00;5.13;;;;;;;8.52;52.86;95190.06;4987212;28;20181;-67
2023/04/15 01:15:28;;;;;;;7.20;5.20;;;;;;;8.55;52.28;95183.84;4986492;28;20642;-67
2023/04/15 01:17:54;;;;;;;11.37;4.70;;;;;;;8.45;52.91;95189.56;4987642;28;20463;-67
2023/04/15 01:20:20;;;;;;;9.83;5.17;;;;;;;8.31;53.55;95188.59;4987793;28;20235;-67
2023/04/15 01:22:47;;;;;;;9.60;4.40;;;;;;;8.20;53.80;95186.59;4987753;28;20194;-68
2023/04/15 01:25:17;;;;;;;5.60;3.93;;;;;;;8.22;53.29;95193.41;4987529;28;20420;-67
2023/04/15 01:27:43;;;;;;;8.67;4.50;;;;;;;8.28;53.89;95193.06;4987528;28;20420;-67
2023/04/15 01:30:09;;;;;;;6.23;4.30;;;;;;;8.33;53.47;95195.44;4987632;28;20520;-67
2023/04/15 01:32:35;;;;;;;6.50;4.87;;;;;;;8.32;53.28;95192.94;4968432;28;20162;-67
2023/04/15 01:35:01;;;;;;;7.60;6.90;;;;;;;8.37;53.52;95190.91;4968320;28;20416;-67
2023/04/15 01:37:26;;;;;;;4.67;3.93;;;;;;;8.39;52.93;95194.28;4967964;28;20896;-66
2023/04/15 01:39:52;;;;;;;7.40;4.70;;;;;;;8.36;52.98;95191.81;4968142;28;20260;-67
2023/04/15 01:42:17;;;;;;;6.27;4.47;;;;;;;8.40;52.81;95195.97;4968104;28;20189;-67
2023/04/15 01:44:44;;;;;;;8.80;4.30;;;;;;;8.39;53.47;95191.66;4967713;28;20221;-67
2023/04/15 01:47:09;;;;;;;10.47;5.00;;;;;;;8.35;53.31;95192.75;4967926;28;20420;-67
2023/04/15 01:49:35;;;;;;;8.87;4.07;;;;;;;8.31;53.86;95189.44;4967943;28;20185;-67
2023/04/15 01:52:00;;;;;;;10.60;4.93;;;;;;;8.19;54.09;95182.28;4968084;28;20204;-66
2023/04/15 01:54:26;;;;;;;5.50;4.23;;;;;;;8.18;54.20;95186.66;4968139;28;20632;-67
2023/04/15 01:56:52;;;;;;;8.17;4.17;;;;;;;8.17;53.66;95182.38;4967808;28;20257;-67
2023/04/15 01:59:17;;;;;;;10.63;5.07;;;;;;;8.10;54.26;95175.75;4967960;28;20232;-67
2023/04/15 02:01:44;;;;;;;7.03;6.10;;;;;;;8.00;54.61;95185.03;4968068;28;20206;-67
2023/04/15 02:04:15;;;;;;;6.43;5.37;;;;;;;8.10;54.15;95175.75;4967950;28;20738;-66
2023/04/15 02:06:44;;;;;;;11.47;4.30;;;;;;;8.16;53.63;95177.22;4967846;28;20468;-67
2023/04/15 02:09:09;;;;;;;8.13;4.43;;;;;;;8.20;53.91;95178.75;4967898;28;20413;-67
2023/04/15 02:11:36;;;;;;;8.70;4.27;;;;;;;8.05;54.43;95180.41;4967847;28;20867;-68
2023/04/15 02:14:03;;;;;;;6.70;4.53;;;;;;;8.09;54.42;95175.88;4968036;28;20174;-68
2023/04/15 02:16:29;;;;;;;10.73;4.63;;;;;;;8.06;54.17;95188.16;4967330;28;20444;-66
2023/04/15 02:18:55;;;;;;;6.50;4.40;;;;;;;8.06;53.86;95182.09;4967870;28;20827;-67
2023/04/15 02:21:20;;;;;;;6.77;3.97;;;;;;;8.04;53.85;95181.34;4967755;28;20201;-67
2023/04/15 02:23:47;;;;;;;5.90;3.80;;;;;;;7.94;54.61;95185.38;4968400;28;20206;-66
2023/04/15 02:26:13;;;;;;;10.87;3.87;;;;;;;7.79;54.18;95185.22;4969660;28;20279;-67
2023/04/15 02:28:38;;;;;;;7.27;3.63;;;;;;;7.81;53.82;95183.38;4971634;28;20786;-67
2023/04/15 02:31:08;;;;;;;8.50;3.90;;;;;;;7.75;54.50;95175.88;4971334;28;20668;-67
2023/04/15 02:33:33;;;;;;;7.10;3.63;;;;;;;7.66;54.36;95192.03;4986549;28;20260;-66
2023/04/15 02:35:59;;;;;;;5.87;3.63;;;;;;;7.56;55.10;95180.34;4989685;28;20498;-67
2023/04/15 02:38:24;;;;;;;6.80;3.90;;;;;;;7.58;55.53;95186.34;4989406;28;20173;-67
2023/04/15 02:40:50;;;;;;;5.40;4.00;;;;;;;7.62;55.72;95187.88;4990728;28;20208;-67
2023/04/15 02:43:16;;;;;;;7.90;4.70;;;;;;;7.62;56.50;95183.50;4989643;28;20213;-68
2023/04/15 02:45:42;;;;;;;5.50;4.90;;;;;;;7.42;57.53;95194.97;4990502;28;20968;-67
2023/04/15 02:48:08;;;;;;;4.40;4.00;;;;;;;7.55;56.96;95191.75;4990486;28;20438;-67
2023/04/15 02:50:34;;;;;;;8.80;4.83;;;;;;;7.38;57.16;95192.59;4990675;28;20889;-66
2023/04/15 02:53:03;;;;;;;5.77;3.80;;;;;;;7.36;57.64;95197.88;4990383;28;20181;-66
2023/04/15 02:55:28;;;;;;;6.10;4.33;;;;;;;7.29;57.76;95195.66;4988896;28;20420;-67
2023/04/15 02:58:03;;;;;;;5.50;4.70;;;;;;;7.35;57.78;95191.00;4990586;28;20416;-67
2023/04/15 03:00:31;;;;;;;7.00;4.37;;;;;;;7.26;58.41;95194.06;4991676;28;20192;-66
2023/04/15 03:03:02;;;;;;;7.20;3.90;;;;;;;7.16;58.69;95188.47;4991124;28;20515;-66
2023/04/15 03:05:28;;;;;;;6.53;4.83;;;;;;;7.21;58.53;95191.69;4990194;28;20439;-66
2023/04/15 03:07:54;;;;;;;8.30;4.60;;;;;;;7.15;58.59;95185.91;4989516;28;20447;-67
2023/04/15 03:10:20;;;;;;;7.63;4.47;;;;;;;7.07;58.89;95185.47;4991193;28;20189;-66
2023/04/15 03:12:55;;;;;;;5.93;4.50;;;;;;;6.97;59.39;95193.75;4989486;28;20208;-67
2023/04/15 03:15:21;;;;;;;9.20;5.60;;;;;;;7.08;59.14;95188.00;4991221;28;20431;-68
2023/04/15 03:17:52;;;;;;;8.90;4.30;;;;;;;7.08;58.96;95189.75;4989396;28;20487;-68
2023/04/15 03:20:17;;;;;;;8.27;4.00;;;;;;;7.11;58.76;95190.47;4990883;28;20219;-67
2023/04/15 03:22:45;;;;;;;6.17;4.50;;;;;;;7.20;58.58;95189.13;4990521;28;20420;-68
2023/04/15 03:25:11;;;;;;;5.10;4.10;;;;;;;7.14;58.74;95173.81;4990547;28;20177;-68
2023/04/15 03:27:37;;;;;;;5.57;4.90;;;;;;;7.14;58.44;95181.63;4990499;28;20431;-67
2023/04/15 03:30:03;;;;;;;5.40;4.00;;;;;;;7.10;58.73;95182.72;4990835;28;20207;-68
2023/04/15 03:32:31;;;;;;;9.23;5.30;;;;;;;7.21;58.20;95183.03;4991113;28;20440;-67
2023/04/15 03:35:26;;;;;;;7.03;3.90;;;;;;;7.06;58.30;95186.38;4991038;28;20169;-68
2023/04/15 03:37:51;;;;;;;6.63;4.10;;;;;;;7.11;58.43;95182.63;4984776;28;20451;-68
2023/04/15 03:40:17;;;;;;;3.80;3.43;;;;;;;6.95;58.44;95177.31;4988614;28;20961;-67
2023/04/15 03:42:42;;;;;;;6.03;3.97;;;;;;;7.08;58.26;95187.16;4989634;28;20172;-66
2023/04/15 03:45:08;;;;;;;5.93;3.87;;;;;;;7.19;57.61;95177.88;4989387;28;20181;-66
2023/04/15 03:47:33;;;;;;;7.40;4.00;;;;;;;7.06;58.14;95184.59;4989293;28;20551;-66
2023/04/15 03:49:59;;;;;;;5.90;3.60;;;;;;;7.08;58.34;95174.09;4989520;28;20197;-67
2023/04/15 03:52:24;;;;;;;4.90;3.80;;;;;;;7.04;57.71;95181.25;4989463;28;20379;-67
2023/04/15 03:54:50;;;;;;;18.97;5.93;;;;;;;6.97;58.40;95180.72;4988121;28;20946;-67
2023/04/15 03:57:15;;;;;;;9.50;4.40;;;;;;;6.98;57.93;95179.78;4989153;28;20173;-67
2023/04/15 03:59:41;;;;;;;9.13;3.80;;;;;;;6.91;58.52;95187.97;4989558;28;20173;-66
2023/04/15 04:02:06;;;;;;;7.57;4.30;;;;;;;6.90;58.37;95187.16;4989248;28;20553;-68
2023/04/15 04:04:35;;;;;;;11.40;4.20;;;;;;;6.76;58.86;95186.97;4989920;28;20196;-66
2023/04/15 04:07:02;;;;;;;5.03;4.50;;;;;;;6.76;59.26;95186.97;4988535;28;20204;-67
2023/04/15 04:09:33;;;;;;;8.20;5.37;;;;;;;6.81;59.01;95190.19;4990067;28;20905;-68
2023/04/15 04:12:00;;;;;;;4.90;3.80;;;;;;;6.79;58.77;95186.81;4989775;28;20442;-67
2023/04/15 04:14:44;;;;;;;7.23;3.60;;;;;;;6.76;59.15;95194.78;4989756;28;20565;-66
2023/04/15 04:17:13;;;;;;;7.53;4.07;;;;;;;6.72;59.26;95193.25;4989079;28;20435;-68
2023/04/15 04:19:38;;;;;;;10.03;4.70;;;;;;;6.69;58.98;95190.78;5004641;28;20428;-68
2023/04/15 04:22:04;;;;;;;5.23;4.10;;;;;;;6.74;58.94;95196.63;4988818;28;21009;-67
2023/04/15 04:24:30;;;;;;;8.03;4.83;;;;;;;6.64;59.43;95193.63;4988744;28;20200;-68
2023/04/15 04:26:56;;;;;;;10.77;4.63;;;;;;;6.76;58.72;95194.78;4988612;28;20255;-68
2023/04/15 04:29:21;;;;;;;16.50;4.77;;;;;;;6.82;58.40;95193.66;4988685;28;20519;-67
2023/04/15 04:31:47;;;;;;;8.77;4.50;;;;;;;6.93;58.00;95199.19;4988580;28;20204;-67
2023/04/15 04:34:13;;;;;;;7.03;4.17;;;;;;;6.75;58.60;95200.91;4988568;28;20173;-68
2023/04/15 04:36:38;;;;;;;9.23;4.43;;;;;;;6.70;58.66;95198.53;4988368;28;20256;-68
2023/04/15 04:39:04;;;;;;;7.40;3.77;;;;;;;6.62;58.90;95202.44;4988450;28;20263;-67
2023/04/15 04:41:29;;;;;;;4.80;3.43;;;;;;;6.59;58.94;95206.03;4988307;28;20286;-67
2023/04/15 04:43:55;;;;;;;9.30;4.50;;;;;;;6.61;58.66;95206.78;4988346;28;20207;-67
2023/04/15 04:46:20;;;;;;;6.63;4.43;;;;;;;6.52;59.10;95215.91;4988204;28;20521;-68
2023/04/15 04:48:45;;;;;;;8.00;4.00;;;;;;;6.48;59.32;95213.50;4987491;28;20685;-68
2023/04/15 04:51:11;;;;;;;9.67;4.60;;;;;;;6.52;58.66;95209.81;4988215;28;20193;-68
2023/04/15 04:53:36;;;;;;;5.00;3.83;;;;;;;6.47;59.21;95214.41;4988278;28;20729;-67
2023/04/15 04:56:02;;;;;;;7.40;4.20;;;;;;;6.40;59.29;95213.84;4987932;28;20180;-67
2023/04/15 04:58:28;;;;;;;9.53;4.20;;;;;;;6.48;58.81;95213.50;4988238;28;20628;-69
2023/04/15 05:00:53;;;;;;;5.30;3.70;;;;;;;6.42;59.41;95216.38;4988183;28;20444;-67
2023/04/15 05:03:19;;;;;;;12.23;5.73;;;;;;;6.39;59.23;95219.97;4988533;28;20235;-67
2023/04/15 05:05:44;;;;;;;9.30;4.60;;;;;;;6.38;58.88;95209.63;4986873;28;20185;-67
2023/04/15 05:08:10;;;;;;;25.10;5.77;;;;;;;6.52;58.83;95204.59;4988021;28;20181;-68
2023/04/15 05:10:35;;;;;;;7.93;4.17;;;;;;;6.49;59.07;95209.97;4987943;28;20230;-68
2023/04/15 05:13:01;;;;;;;15.60;4.83;;;;;;;6.37;58.99;95211.38;4988260;28;20181;-68
2023/04/15 05:15:26;;;;;;;21.37;5.40;;;;;;;6.39;59.09;95208.72;4988045;28;20184;-68
2023/04/15 05:17:51;;;;;;;11.07;5.40;;;;;;;6.43;59.25;95218.09;4987854;28;20184;-68
2023/04/15 05:20:17;;;;;;;7.43;3.63;;;;;;;6.43;59.08;95213.72;4984904;28;20208;-67
2023/04/15 05:22:42;;;;;;;6.20;5.07;;;;;;;6.60;58.37;95199.91;4986937;28;20226;-67
2023/04/15 05:25:08;;;;;;;10.00;5.20;;;;;;;6.71;57.94;95205.44;4987668;28;20251;-67
2023/04/15 05:27:34;;;;;;;5.97;4.67;;;;;;;6.71;58.45;95197.63;4986999;28;20180;-67
2023/04/15 05:30:00;;;;;;;9.57;4.60;;;;;;;6.77;57.67;95209.50;4987177;28;20993;-67
2023/04/15 05:32:25;;;;;;;7.93;4.83;;;;;;;6.85;57.32;95212.59;4987200;28;20228;-68
2023/04/15 05:34:51;;;;;;;8.63;4.77;;;;;;;6.92;56.98;95208.78;4987500;28;21009;-68
2023/04/15 05:37:16;;;;;;;9.20;4.20;;;;;;;7.02;56.66;95214.38;4983741;28;20182;-68
2023/04/15 05:39:42;;;;;;;8.87;4.87;;;;;;;7.10;56.45;95216.63;4968125;28;20229;-68
2023/04/15 05:42:07;;;;;;;6.63;5.00;;;;;;;7.05;56.46;95218.63;4967736;28;20243;-68
2023/04/15 05:44:32;;;;;;;8.47;4.47;;;;;;;7.09;56.82;95218.38;4967734;28;20683;-68
2023/04/15 05:46:58;;;;;;;5.30;4.23;;;;;;;7.21;56.29;95219.53;4967563;28;20195;-68
2023/04/15 05:49:23;;;;;;;9.43;4.63;;;;;;;7.33;55.89;95225.91;4967786;28;20174;-67
2023/04/15 05:51:49;;;;;;;5.90;4.23;;;;;;;7.61;55.06;95227.97;4967479;28;20258;-69
2023/04/15 05:54:15;;;;;;;7.70;4.70;;;;;;;7.53;54.77;95227.50;4981351;28;20173;-69
2023/04/15 05:56:40;;;;;;;5.20;4.57;;;;;;;7.38;54.94;95227.38;4985730;28;20181;-67
2023/04/15 05:59:06;;;;;;;5.37;4.57;;;;;;;7.31;55.74;95228.59;4988212;28;21004;-67
2023/04/15 06:01:33;;;;;;;6.43;5.10;;;;;;;7.24;55.54;95235.03;4991231;28;20191;-69
2023/04/15 06:03:59;;;;;;;9.20;4.90;;;;;;;7.27;55.76;95224.44;4991060;28;20204;-67
2023/04/15 06:06:26;;;;;;;11.53;4.90;;;;;;;7.14;55.83;95228.59;4990762;28;20427;-67
2023/04/15 06:08:51;;;;;;;18.70;5.60;;;;;;;7.07;56.00;95230.66;4989701;28;20219;-68
2023/04/15 06:11:17;;;;;;;9.80;4.27;;;;;;;7.08;56.21;95226.28;4990809;28;20463;-67
2023/04/15 06:13:42;;;;;;;10.70;5.27;;;;;;;7.11;56.50;95228.72;4988413;28;20274;-67
2023/04/15 06:16:08;;;;;;;7.77;4.83;;;;;;;7.04;56.52;95229.94;4971420;28;20181;-68
2023/04/15 06:18:33;;;;;;;15.40;5.23;;;;;;;7.05;56.32;95229.88;4971804;28;20181;-68
2023/04/15 06:20:58;;;;;;;9.43;4.80;;;;;;;7.09;56.21;95233.19;4971473;28;20234;-69
2023/04/15 06:23:24;;;;;;;11.40;5.53;;;;;;;7.15;56.23;95233.72;4978232;28;20279;-67
2023/04/15 06:25:50;;;;;;;7.53;4.80;;;;;;;7.19;56.42;95234.44;4971230;28;20212;-67
2023/04/15 06:28:15;;;;;;;12.10;4.47;;;;;;;7.17;56.42;95228.44;4979279;28;20199;-68
2023/04/15 06:30:41;;;;;;;15.57;5.43;;;;;;;7.31;55.75;95228.59;4990433;28;20439;-68
2023/04/15 06:33:06;;;;;;;13.80;5.47;;;;;;;7.32;56.09;95230.31;4990692;28;20726;-68
2023/04/15 06:35:32;;;;;;;18.13;5.07;;;;;;;7.47;55.50;95233.91;4990587;28;20196;-67
2023/04/15 06:37:57;;;;;;;12.00;4.90;;;;;;;7.58;54.96;95234.22;4990619;28;20607;-68
2023/04/15 06:40:23;;;;;;;6.37;5.07;;;;;;;7.71;54.58;95230.97;4990315;28;20869;-68
2023/04/15 06:42:48;;;;;;;8.20;5.67;;;;;;;7.76;54.89;95232.41;4990852;28;20177;-68
2023/04/15 06:45:14;;;;;;;9.70;5.10;;;;;;;7.91;55.16;95232.53;4990716;28;20322;-69
2023/04/15 06:47:40;;;;;;;9.80;5.20;;;;;;;7.93;54.65;95233.31;4990309;28;20179;-68
2023/04/15 06:50:08;;;;;;;7.30;5.13;;;;;;;8.15;53.69;95235.63;4990283;28;20412;-68
2023/04/15 06:52:33;;;;;;;12.43;4.50;;;;;;;8.22;53.96;95231.75;4990499;28;20419;-68
2023/04/15 06:55:00;;;;;;;8.30;4.63;;;;;;;8.32;54.39;95235.59;4990672;28;20438;-68
2023/04/15 06:57:27;;;;;;;7.90;4.77;;;;;;;8.57;53.38;95234.28;4990195;28;20165;-68
2023/04/15 06:59:53;;;;;;;5.10;4.60;;;;;;;8.68;53.46;95237.16;4990138;28;21095;-68
2023/04/15 07:02:19;;;;;;;11.27;4.60;;;;;;;8.88;52.84;95239.53;4987929;28;20471;-68
2023/04/15 07:04:45;;;;;;;9.43;5.60;;;;;;;9.44;51.24;95231.97;4989497;28;20205;-68
2023/04/15 07:07:11;;;;;;;12.30;5.20;;;;;;;9.69;50.13;95238.41;4983486;28;20459;-68
2023/04/15 07:09:36;;;;;;;6.60;4.30;;;;;;;9.48;51.27;95237.88;4982042;28;20470;-68
2023/04/15 07:12:01;;;;;;;17.37;4.83;;;;;;;9.85;50.29;95231.31;4988597;28;20283;-69
2023/04/15 07:14:28;;;;;;;9.53;4.50;;;;;;;9.95;49.79;95224.59;4989674;28;20174;-69
2023/04/15 07:16:53;;;;;;;10.03;4.63;;;;;;;10.02;49.28;95225.06;4989372;28;20330;-68
2023/04/15 07:19:19;;;;;;;6.97;4.30;;;;;;;10.63;48.19;95212.59;4984731;28;21008;-68
2023/04/15 07:21:45;;;;;;;8.83;4.00;;;;;;;11.29;46.44;95212.75;4989215;28;20734;-68
2023/04/15 07:24:11;;;;;;;8.27;4.80;;;;;;;11.78;45.29;95209.47;4985185;28;20284;-68
2023/04/15 07:26:36;;;;;;;6.77;4.37;;;;;;;12.25;43.76;95214.13;4989480;28;20412;-68
2023/04/15 07:29:02;;;;;;;7.00;4.83;;;;;;;12.57;43.13;95207.59;4989018;28;20168;-67
2023/04/15 07:31:28;;;;;;;6.70;4.60;;;;;;;12.51;42.78;95208.84;4989368;28;20204;-68
2023/04/15 07:33:53;;;;;;;14.57;5.97;;;;;;;12.33;43.10;95211.00;4989728;28;20191;-68
2023/04/15 07:36:19;;;;;;;8.43;4.60;;;;;;;12.20;43.90;95204.88;4989088;28;20165;-68
2023/04/15 07:38:45;;;;;;;7.30;5.57;;;;;;;11.83;44.34;95204.75;4989400;28;20440;-68
2023/04/15 07:41:10;;;;;;;7.03;4.80;;;;;;;11.75;44.70;95204.44;4989185;28;20555;-68
2023/04/15 07:43:36;;;;;;;6.33;4.70;;;;;;;11.97;44.47;95209.94;4989220;28;20917;-68
2023/04/15 07:46:01;;;;;;;6.83;4.70;;;;;;;12.15;44.54;95213.09;4989166;28;20196;-68
2023/04/15 07:48:26;;;;;;;5.77;4.40;;;;;;;12.20;44.07;95200.47;4989289;28;20594;-68
2023/04/15 07:50:52;;;;;;;9.60;5.63;;;;;;;12.36;44.48;95207.31;4989149;28;20694;-68
2023/04/15 07:53:18;;;;;;;8.10;4.80;;;;;;;12.21;44.88;95203.94;4989050;28;20190;-68
2023/04/15 07:55:43;;;;;;;18.17;5.03;;;;;;;12.35;43.90;95202.97;4988798;28;20181;-68
2023/04/15 07:58:08;;;;;;;12.00;5.10;;;;;;;12.44;44.17;95199.69;4988526;28;20197;-68
2023/04/15 08:00:34;;;;;;;7.37;4.83;;;;;;;12.49;43.90;95202.84;4988911;28;20196;-67
2023/04/15 08:02:59;;;;;;;9.27;4.40;;;;;;;13.02;54.94;95205.22;4987680;28;20169;-68
2023/04/15 08:05:24;;;;;;;20.83;4.93;;;;;;;13.93;57.59;95192.25;4987285;28;20220;-68
2023/04/15 08:07:50;;;;;;;12.90;4.40;;;;;;;14.50;54.67;95192.28;4988668;28;20176;-69
2023/04/15 08:10:16;;;;;;;5.80;4.53;;;;;;;13.82;43.12;95184.34;4995864;28;20201;-68
2023/04/15 08:12:41;;;;;;;8.37;5.17;;;;;;;13.44;43.00;95196.00;4978929;28;20185;-68
2023/04/15 08:15:08;;;;;;;7.67;4.77;;;;;;;13.12;43.58;95188.63;4978358;28;20176;-67
2023/04/15 08:17:33;;;;;;;7.30;4.93;;;;;;;12.97;43.91;95196.78;4979304;28;20208;-67
2023/04/15 08:19:59;;;;;;;7.73;4.67;;;;;;;13.09;43.97;95193.28;4982621;28;20428;-69
2023/04/15 08:22:24;;;;;;;6.70;4.23;;;;;;;13.37;43.49;95192.13;4976296;28;21043;-69
2023/04/15 08:24:50;;;;;;;11.90;4.93;;;;;;;13.43;43.28;95190.81;4978940;28;20213;-67
2023/04/15 08:27:16;;;;;;;6.87;5.67;;;;;;;13.47;43.26;95194.91;4983702;28;20642;-69
2023/04/15 08:29:41;;;;;;;8.13;4.67;;;;;;;13.55;43.69;95188.09;4992443;28;20300;-67
2023/04/15 08:32:08;;;;;;;9.13;4.53;;;;;;;12.93;43.86;95191.75;4970952;28;20453;-68
2023/04/15 08:34:34;;;;;;;7.90;4.87;;;;;;;13.13;44.11;95187.69;4974539;28;20182;-68
2023/04/15 08:36:59;;;;;;;6.90;4.80;;;;;;;13.10;43.94;95187.88;4975093;28;20483;-68
2023/04/15 08:39:25;;;;;;;12.53;5.20;;;;;;;13.08;44.04;95192.44;4973707;28;20640;-69
2023/04/15 08:42:06;;;;;;;11.20;5.20;;;;;;;13.24;43.86;95194.78;4979026;28;20216;-68
2023/04/15 08:44:35;;;;;;;6.33;4.93;;;;;;;13.34;43.92;95194.97;4984299;28;20223;-67
2023/04/15 08:47:01;;;;;;;8.50;5.67;;;;;;;13.20;43.60;95189.84;4968384;28;20458;-68
2023/04/15 08:49:28;;;;;;;4.90;4.20;;;;;;;13.44;44.08;95189.84;4984020;28;20424;-67
2023/04/15 08:51:55;;;;;;;11.75;5.28;;;;;;;13.31;43.88;95188.13;4970493;28;20508;-66
2023/04/15 08:54:21;;;;;;;11.73;4.87;;;;;;;13.62;43.40;95191.13;4983437;28;20267;-67
2023/04/15 08:56:47;;;;;;;9.53;4.30;;;;;;;13.60;43.75;95187.75;4967537;28;20447;-68
2023/04/15 08:59:15;;;;;;;8.07;5.17;;;;;;;13.61;43.29;95175.44;4982371;28;20439;-68
2023/04/15 09:01:40;;;;;;;7.00;4.97;;;;;;;13.66;43.22;95174.13;4976501;28;20445;-67
2023/04/15 09:04:06;;;;;;;12.33;4.83;;;;;;;13.68;43.81;95176.66;4982772;28;21062;-66
2023/04/15 09:06:33;;;;;;;16.60;5.60;;;;;;;13.84;42.92;95176.31;4975958;28;20183;-68
2023/04/15 09:08:58;;;;;;;13.70;7.47;;;;;;;14.06;42.73;95180.78;4985073;28;20172;-66
2023/04/15 09:11:24;;;;;;;12.57;5.40;;;;;;;14.03;42.96;95184.50;4984874;28;20856;-68
2023/04/15 09:13:50;;;;;;;8.40;4.67;;;;;;;14.08;42.28;95174.44;4985109;28;20195;-67
2023/04/15 09:16:15;;;;;;;14.20;5.63;;;;;;;14.34;42.05;95172.41;4984638;28;20254;-66
2023/04/15 09:18:42;;;;;;;9.67;4.10;;;;;;;14.89;40.75;95164.56;4985064;28;20177;-68
2023/04/15 09:21:10;;;;;;;7.20;5.10;;;;;;;14.85;40.53;95165.75;4985212;28;20524;-67
2023/04/15 09:23:39;;;;;;;12.90;5.40;;;;;;;15.28;40.09;95162.25;4988066;28;20506;-67
2023/04/15 09:26:06;;;;;;;9.37;5.23;;;;;;;15.41;39.96;95168.22;4987654;28;20447;-66
2023/04/15 09:28:31;;;;;;;4.40;4.00;;;;;;;15.95;38.16;95166.41;4987968;28;20559;-68
2023/04/15 09:30:58;;;;;;;8.40;5.90;;;;;;;16.21;37.27;95163.34;4987780;28;20523;-68
2023/04/15 09:33:25;;;;;;;10.23;5.03;;;;;;;16.32;36.25;95162.38;4987270;28;20165;-68
2023/04/15 09:36:04;;;;;;;8.40;4.50;;;;;;;16.13;35.98;95165.78;4987711;28;20415;-68
2023/04/15 09:38:31;;;;;;;6.63;3.87;;;;;;;15.35;34.71;95168.72;4987734;28;20882;-68
2023/04/15 09:40:57;;;;;;;4.80;3.00;;;;;;;15.41;35.08;95173.50;4987763;28;20491;-68
2023/04/15 09:43:37;;;;;;;8.97;3.57;;;;;;;15.11;35.19;95168.09;4987409;28;20568;-68
2023/04/15 09:46:03;;;;;;;10.53;5.80;;;;;;;15.03;37.83;95169.56;4987376;28;20539;-67
2023/04/15 09:48:31;;;;;;;8.83;4.70;;;;;;;15.10;37.86;95171.72;4987443;28;20515;-67
2023/04/15 09:50:58;;;;;;;6.07;3.70;;;;;;;15.09;36.90;95180.59;4987183;28;20238;-67
2023/04/15 09:53:24;;;;;;;8.60;3.30;;;;;;;15.01;32.25;95168.84;4987464;28;20919;-68
2023/04/15 09:55:55;;;;;;;5.70;3.40;;;;;;;14.71;32.27;95168.66;4987317;28;20443;-68
2023/04/15 09:58:26;;;;;;;5.07;3.10;;;;;;;14.66;31.87;95169.03;4987473;28;20439;-68
2023/04/15 10:00:53;;;;;;;5.63;2.73;;;;;;;14.60;32.56;95174.81;4987018;28;20432;-68
2023/04/15 10:03:26;;;;;;;4.10;3.00;;;;;;;14.37;32.38;95169.50;4987215;28;21028;-68
2023/04/15 10:05:55;;;;;;;4.10;2.90;;;;;;;14.38;32.78;95178.25;4987008;28;20412;-67
2023/04/15 10:08:24;;;;;;;6.10;3.27;;;;;;;14.33;32.42;95180.44;4987341;28;20416;-67
2023/04/15 10:10:51;;;;;;;4.43;3.10;;;;;;;14.39;32.38;95177.31;4987114;28;20514;-67
2023/04/15 10:13:27;;;;;;;4.37;2.70;;;;;;;14.32;31.95;95176.97;4981572;28;20496;-67
2023/04/15 10:16:13;;;;;;;4.33;3.40;;;;;;;14.27;32.88;95186.16;4989773;28;20443;-67
2023/04/15 10:18:42;;;;;;;9.63;3.40;;;;;;;14.77;33.34;95173.47;4980694;28;20518;-66
2023/04/15 10:21:09;;;;;;;5.90;3.83;;;;;;;15.21;32.59;95176.94;4971205;28;20447;-66
2023/04/15 10:23:35;;;;;;;4.43;3.47;;;;;;;15.58;32.16;95176.56;4976634;28;20464;-68
2023/04/15 10:26:03;;;;;;;12.63;3.80;;;;;;;15.61;31.97;95179.78;4967664;28;20421;-67
2023/04/15 10:28:37;;;;;;;17.60;5.40;;;;;;;15.55;31.93;95175.00;4972447;28;20503;-68
2023/04/15 10:31:04;;;;;;;18.70;3.90;;;;;;;15.52;31.53;95179.69;4977120;28;20452;-68
2023/04/15 10:33:30;;;;;;;5.20;3.50;;;;;;;15.22;31.69;95174.19;4976014;28;20428;-68
2023/04/15 10:35:56;;;;;;;10.00;3.37;;;;;;;15.14;31.38;95178.41;4973573;28;20435;-68
2023/04/15 10:38:32;;;;;;;9.90;4.43;;;;;;;14.89;31.92;95185.69;4972325;28;20429;-68
2023/04/15 10:41:15;;;;;;;4.47;3.30;;;;;;;14.66;31.84;95181.41;4973864;28;20262;-68
2023/04/15 10:43:56;;;;;;;7.33;3.40;;;;;;;14.74;32.95;95185.13;4976001;28;20984;-68
2023/04/15 10:46:44;;;;;;;15.93;3.63;;;;;;;15.11;32.68;95176.84;4982588;28;21247;-68
2023/04/15 10:49:11;;;;;;;3.50;3.20;;;;;;;14.90;31.99;95187.34;4978825;28;20992;-68
2023/04/15 10:51:40;;;;;;;5.70;3.40;;;;;;;15.01;32.67;95189.97;4979712;28;21088;-68
2023/04/15 10:54:12;;;;;;;6.67;3.60;;;;;;;15.41;31.57;95196.47;4975755;28;20452;-68
2023/04/15 10:56:40;;;;;;;9.60;3.80;;;;;;;15.24;31.42;95195.22;4987822;28;20430;-69
2023/04/15 10:59:06;;;;;;;8.83;4.40;;;;;;;15.71;31.18;95198.41;4979825;28;20436;-67
2023/04/15 11:01:55;;;;;;;15.53;4.70;;;;;;;15.94;31.38;95187.69;4987419;28;20450;-67
2023/04/15 11:04:58;;;;;;;6.70;3.50;;;;;;;15.27;31.94;95181.72;4980625;28;20267;-68
2023/04/15 11:07:33;;;;;;;10.20;4.27;;;;;;;15.47;32.80;95188.00;4983040;28;20427;-68
2023/04/15 11:09:58;;;;;;;4.20;3.80;;;;;;;15.62;32.21;95186.75;4979508;28;20482;-70
2023/04/15 11:12:34;;;;;;;12.77;4.50;;;;;;;15.57;31.55;95198.69;4973767;28;20928;-69
2023/04/15 11:14:59;;;;;;;15.50;4.97;;;;;;;15.72;31.11;95204.53;4986136;28;20232;-68
2023/04/15 11:17:28;;;;;;;18.53;3.70;;;;;;;15.24;31.21;95187.28;4978823;28;20846;-69
2023/04/15 11:19:53;;;;;;;6.03;3.30;;;;;;;15.64;31.28;95198.03;4972937;28;20181;-68
2023/04/15 11:22:19;;;;;;;5.17;4.03;;;;;;;15.61;30.83;95186.88;4986744;28;20781;-69
2023/04/15 11:24:50;;;;;;;7.70;4.57;;;;;;;15.36;31.28;95196.84;4993166;28;20209;-67
2023/04/15 11:27:22;;;;;;;22.20;5.73;;;;;;;15.48;31.16;95202.91;4969720;28;20178;-66
2023/04/15 11:29:48;;;;;;;7.67;4.20;;;;;;;15.55;31.14;95206.72;4978093;28;20428;-66
2023/04/15 11:32:13;;;;;;;10.33;5.20;;;;;;;15.20;31.86;95209.63;4976759;28;20448;-66
2023/04/15 11:34:39;;;;;;;8.00;3.97;;;;;;;15.24;31.67;95208.41;4982386;28;20182;-67